Terminal Aerodrome Forecast
Issued by NWS

Home | Current Version | Previous Version | Text Only | Print | Product List | Glossary On
Versions: 1 2 3 4 5 6 7 8 9 10 11 12 13 14 15 16 17 18 19 20 21 22 23 24 25 26 27
000
FTUS45 KREV 270539
TAFRNO
TAF
KRNO 270539Z 2706/2806 30012G20KT P6SM SCT060 BKN220
     FM271100 34010KT P6SM FEW070 BKN220
     FM271800 33014G22KT P6SM SCT070 BKN220=

USA.gov is the U.S. government's official web portal to all federal, state and local government web resources and services.